Terminal Aerodrome Forecast
Issued by NWS

Home | Current Version | Previous Version | Text Only | Print | Product List | Glossary On
Versions: 1 2 3 4 5 6 7 8 9 10 11 12 13 14 15 16
000
FTUS43 KMQT 051125
TAFSAW
TAF
KSAW 051125Z 0512/0612 19008KT P6SM SCT250
     FM051800 19014G21KT P6SM SCT250
     FM060200 18010KT P6SM SCT250 WS005/20035KT=

USA.gov is the U.S. government's official web portal to all federal, state and local government web resources and services.